Time;durP1;ratioP1;P1;durP2;ratioP2;P2;SDS_P1;SDS_P2;PMS_P1;PMS_P2;Temp;Humidity;BMP_temperature;BMP_pressure;BME280_temperature;BME280_humidity;BME280_pressure;Samples;Min_cycle;Max_cycle;Signal;HPM_P1;HPM_P2
2022/06/09 00:00:10;;;;;;;0.30;0.30;;;15.10;99.70;14.40;97731.00;;;;5095952;28;20218;-77
2022/06/09 00:02:42;;;;;;;0.60;0.60;;;15.00;98.80;14.50;97732.00;;;;5096012;28;20229;-77
2022/06/09 00:05:12;;;;;;;0.50;0.50;;;15.10;99.20;14.60;97731.00;;;;5095844;28;20275;-77
2022/06/09 00:07:39;;;;;;;0.50;0.50;;;15.10;98.60;14.50;97739.00;;;;5095231;28;20703;-77
2022/06/09 00:10:13;;;;;;;0.40;0.40;;;15.10;98.60;14.50;97740.00;;;;5095826;28;20278;-77
2022/06/09 00:12:40;;;;;;;0.40;0.40;;;15.10;98.60;14.50;97750.00;;;;5095817;28;20215;-77
2022/06/09 00:15:10;;;;;;;0.50;0.50;;;15.10;98.80;14.50;97721.00;;;;5095789;28;20773;-77
2022/06/09 00:17:37;;;;;;;0.50;0.50;;;15.10;99.50;14.50;97752.00;;;;5095677;28;20198;-76
2022/06/09 00:20:06;;;;;;;0.60;0.60;;;15.10;99.10;14.50;97750.00;;;;5095780;28;20234;-77
2022/06/09 00:22:34;;;;;;;0.67;0.67;;;15.10;98.60;14.60;97765.00;;;;5095699;28;20261;-76
2022/06/09 00:25:03;;;;;;;0.50;0.50;;;15.10;98.80;14.60;97757.00;;;;5095559;28;20195;-77
2022/06/09 00:27:30;;;;;;;0.57;0.57;;;15.10;98.90;14.60;97755.00;;;;5095427;28;20549;-77
2022/06/09 00:29:57;;;;;;;0.60;0.60;;;15.10;98.50;14.60;97758.00;;;;5095542;28;20281;-77
2022/06/09 00:32:25;;;;;;;0.40;0.40;;;15.10;97.90;14.50;97767.00;;;;5095482;28;20207;-76
2022/06/09 00:34:54;;;;;;;0.40;0.40;;;15.10;97.30;14.60;97771.00;;;;5099521;28;20215;-76
2022/06/09 00:37:21;;;;;;;0.30;0.30;;;15.10;96.80;14.70;97765.00;;;;5097579;28;20199;-77
2022/06/09 00:39:47;;;;;;;0.40;0.40;;;15.20;96.50;14.70;97772.00;;;;5095268;28;20191;-76
2022/06/09 00:42:13;;;;;;;0.40;0.40;;;15.20;96.00;14.70;97772.00;;;;5095406;28;20255;-77
2022/06/09 00:44:41;;;;;;;0.47;0.47;;;15.30;96.40;14.60;97767.00;;;;5095324;28;20190;-77
2022/06/09 00:47:16;;;;;;;0.50;0.50;;;15.20;96.90;14.70;97770.00;;;;5095293;28;20657;-77
2022/06/09 00:49:51;;;;;;;0.50;0.50;;;15.20;95.00;14.70;97748.00;;;;5095272;28;20190;-77
2022/06/09 00:52:23;;;;;;;0.40;0.40;;;15.20;94.50;14.60;97770.00;;;;5095202;28;20194;-76
2022/06/09 00:55:00;;;;;;;0.40;0.40;;;15.20;94.40;14.60;97762.00;;;;5095027;28;20226;-77
2022/06/09 00:57:34;;;;;;;0.40;0.40;;;15.20;94.90;14.60;97777.00;;;;5095085;28;20703;-76
2022/06/09 01:00:14;;;;;;;0.50;0.50;;;15.20;95.30;14.60;97774.00;;;;5094936;28;20556;-76
2022/06/09 01:02:44;;;;;;;0.50;0.50;;;15.10;96.20;14.40;97776.00;;;;5095047;28;20269;-77
2022/06/09 01:05:11;;;;;;;0.50;0.50;;;15.20;96.10;14.70;97776.00;;;;5077270;28;20576;-77
2022/06/09 01:07:44;;;;;;;1.73;1.60;;;15.20;95.50;14.70;97781.00;;;;5094820;28;20703;-77
2022/06/09 01:10:12;;;;;;;0.50;0.50;;;15.20;95.30;14.60;97779.00;;;;5094865;28;20679;-77
2022/06/09 01:12:42;;;;;;;0.33;0.33;;;15.20;96.00;14.60;97773.00;;;;5094774;28;20237;-77
2022/06/09 01:15:15;;;;;;;0.50;0.50;;;15.10;96.40;14.50;97733.00;;;;5094793;28;20221;-77
2022/06/09 01:17:56;;;;;;;0.50;0.50;;;15.10;97.00;14.60;97771.00;;;;5093777;28;20233;-77
2022/06/09 01:20:39;;;;;;;0.40;0.40;;;15.10;97.70;14.40;97770.00;;;;5094630;28;20548;-77
2022/06/09 01:23:57;;;;;;;0.50;0.50;;;15.00;97.30;14.50;97769.00;;;;5094784;28;20289;-77
2022/06/09 01:27:15;;;;;;;0.60;0.60;;;15.00;97.50;14.30;97769.00;;;;5094523;28;20218;-77
2022/06/09 01:29:55;;;;;;;0.40;0.40;;;14.90;96.80;14.40;97746.00;;;;5094652;28;20273;-77
2022/06/09 01:32:30;;;;;;;16.53;1.17;;;15.00;97.10;14.50;97759.00;;;;5094537;28;20206;-77
2022/06/09 01:35:21;;;;;;;0.43;0.43;;;15.00;97.30;14.50;97762.00;;;;5076653;28;20611;-77
2022/06/09 01:37:56;;;;;;;0.47;0.47;;;15.00;97.40;14.30;97775.00;;;;5094431;28;20629;-76
2022/06/09 01:40:22;;;;;;;1.93;0.63;;;14.90;97.00;14.50;97772.00;;;;5096267;28;20222;-77
2022/06/09 01:42:51;;;;;;;0.40;0.40;;;14.90;97.20;14.50;97762.00;;;;5080316;28;20258;-78
2022/06/09 01:45:21;;;;;;;0.40;0.40;;;14.90;97.20;14.40;97775.00;;;;5094390;28;20190;-77
2022/06/09 01:47:55;;;;;;;0.40;0.40;;;15.00;97.20;14.40;97779.00;;;;5094303;28;20202;-77
2022/06/09 01:50:32;;;;;;;0.50;0.50;;;14.90;97.10;14.30;97779.00;;;;5076546;28;20202;-77
2022/06/09 01:53:04;;;;;;;0.50;0.50;;;14.90;97.40;14.30;97784.00;;;;5094202;28;20229;-77
2022/06/09 01:55:35;;;;;;;1.33;1.23;;;14.90;97.40;14.30;97782.00;;;;5094173;28;20337;-77
2022/06/09 01:58:05;;;;;;;0.40;0.40;;;14.90;98.30;14.50;97785.00;;;;5094105;28;20616;-78
2022/06/09 02:00:32;;;;;;;0.83;0.83;;;15.00;98.40;14.40;97784.00;;;;5094067;28;20218;-77
2022/06/09 02:03:08;;;;;;;0.47;0.47;;;15.00;96.90;14.30;97787.00;;;;5094432;28;20271;-78
2022/06/09 02:05:44;;;;;;;0.50;0.50;;;14.90;96.80;14.40;97793.00;;;;5094034;28;20652;-78
2022/06/09 02:08:15;;;;;;;0.50;0.50;;;14.90;97.40;14.30;97766.00;;;;5094000;28;20267;-77
2022/06/09 02:10:47;;;;;;;0.67;0.67;;;14.90;97.00;14.30;97789.00;;;;5094032;28;20201;-77
2022/06/09 02:13:19;;;;;;;0.50;0.50;;;14.90;97.30;14.30;97788.00;;;;5093961;28;20222;-77
2022/06/09 02:15:49;;;;;;;0.40;0.40;;;14.80;97.00;14.30;97791.00;;;;5093928;28;20230;-77
2022/06/09 02:18:22;;;;;;;0.50;0.50;;;14.80;97.20;14.40;97794.00;;;;5093856;28;20195;-77
2022/06/09 02:20:58;;;;;;;0.40;0.40;;;14.80;97.20;14.30;97792.00;;;;5093796;28;20313;-77
2022/06/09 02:23:25;;;;;;;0.40;0.40;;;14.90;96.80;14.30;97797.00;;;;5093779;28;20209;-77
2022/06/09 02:25:52;;;;;;;0.40;0.40;;;14.90;97.60;14.30;97790.00;;;;5075927;28;20532;-76
2022/06/09 02:28:19;;;;;;;0.40;0.40;;;14.90;98.30;14.40;97762.00;;;;5093770;28;20346;-77
2022/06/09 02:30:48;;;;;;;1.27;1.17;;;14.90;97.30;14.30;97802.00;;;;5093353;28;20198;-77
2022/06/09 02:33:20;;;;;;;0.40;0.40;;;14.80;97.30;14.20;97807.00;;;;5093576;28;20226;-77
2022/06/09 02:35:47;;;;;;;0.50;0.50;;;14.80;97.60;14.20;97802.00;;;;5093516;28;20753;-77
2022/06/09 02:38:16;;;;;;;0.80;0.80;;;14.80;98.20;14.20;97802.00;;;;5075745;28;20206;-77
2022/06/09 02:40:42;;;;;;;0.50;0.50;;;14.80;97.90;14.20;97813.00;;;;5075634;28;20572;-77
2022/06/09 02:43:09;;;;;;;0.50;0.50;;;14.80;98.30;14.30;97815.00;;;;5093481;28;20657;-77
2022/06/09 02:45:38;;;;;;;0.43;0.43;;;14.80;98.00;14.30;97811.00;;;;5094008;28;20277;-76
2022/06/09 02:48:06;;;;;;;0.40;0.40;;;14.80;97.90;14.30;97811.00;;;;5093453;28;20324;-77
2022/06/09 02:50:34;;;;;;;0.33;0.33;;;14.90;97.10;14.20;97811.00;;;;5075916;28;20263;-78
2022/06/09 02:53:03;;;;;;;0.47;0.47;;;14.80;96.90;14.10;97811.00;;;;5093400;28;20241;-78
2022/06/09 02:55:30;;;;;;;0.70;0.70;;;14.70;97.40;14.10;97812.00;;;;5093260;28;20226;-77
2022/06/09 02:57:57;;;;;;;0.60;0.60;;;14.60;97.90;14.00;97817.00;;;;5093341;28;20285;-76
2022/06/09 03:00:24;;;;;;;0.80;0.80;;;14.60;97.70;14.10;97813.00;;;;5075575;28;20244;-77
2022/06/09 03:02:57;;;;;;;0.50;0.50;;;14.60;98.40;14.10;97816.00;;;;5093259;28;20195;-77
2022/06/09 03:05:28;;;;;;;0.40;0.40;;;14.60;97.40;14.20;97816.00;;;;5093294;28;20645;-76
2022/06/09 03:07:56;;;;;;;0.40;0.40;;;14.60;98.00;14.10;97813.00;;;;5075465;28;20457;-77
2022/06/09 03:10:24;;;;;;;0.60;0.60;;;14.70;97.60;14.20;97809.00;;;;5093121;28;20226;-77
2022/06/09 03:12:51;;;;;;;0.63;0.63;;;14.70;97.30;14.10;97829.00;;;;5093358;28;20292;-78
2022/06/09 03:15:22;;;;;;;0.60;0.60;;;14.60;97.60;14.20;97825.00;;;;5075322;28;20319;-77
2022/06/09 03:17:49;;;;;;;0.40;0.40;;;14.60;97.50;14.00;97830.00;;;;5093152;28;20206;-77
2022/06/09 03:20:22;;;;;;;0.50;0.50;;;14.60;97.50;14.10;97830.00;;;;5075231;28;20333;-77
2022/06/09 03:22:49;;;;;;;0.40;0.40;;;14.60;98.10;14.00;97839.00;;;;5093148;28;20281;-77
2022/06/09 03:25:17;;;;;;;0.60;0.60;;;14.60;98.30;14.00;97829.00;;;;5092966;28;20203;-77
2022/06/09 03:27:44;;;;;;;0.53;0.53;;;14.60;98.30;14.00;97830.00;;;;5075131;28;20210;-76
2022/06/09 03:30:11;;;;;;;0.40;0.40;;;14.50;98.50;14.10;97839.00;;;;5093093;28;20222;-76
2022/06/09 03:32:40;;;;;;;0.90;0.90;;;14.70;98.00;14.20;97842.00;;;;5092938;28;20226;-76
2022/06/09 03:35:09;;;;;;;0.50;0.50;;;14.80;97.30;14.20;97840.00;;;;5092740;28;20317;-77
2022/06/09 03:37:36;;;;;;;0.50;0.50;;;14.70;97.20;14.20;97835.00;;;;5092928;28;20195;-76
2022/06/09 03:40:08;;;;;;;0.60;0.60;;;14.70;97.60;14.30;97845.00;;;;5092821;28;20219;-75
2022/06/09 03:42:36;;;;;;;0.83;0.77;;;14.80;97.20;14.10;97853.00;;;;5095654;28;20523;-76
2022/06/09 03:45:03;;;;;;;0.50;0.50;;;14.60;97.20;14.10;97843.00;;;;5096264;28;20195;-76
2022/06/09 03:47:32;;;;;;;0.70;0.70;;;14.70;97.20;14.00;97851.00;;;;5096156;28;20243;-77
2022/06/09 03:49:58;;;;;;;0.50;0.50;;;14.60;97.50;14.20;97853.00;;;;5096188;28;20285;-76
2022/06/09 03:52:25;;;;;;;0.77;0.77;;;14.70;98.10;14.10;97854.00;;;;5095941;28;20285;-76
2022/06/09 03:54:52;;;;;;;0.50;0.50;;;14.60;97.30;14.00;97859.00;;;;5096157;28;20576;-76
2022/06/09 03:57:18;;;;;;;0.67;0.67;;;14.60;97.40;14.00;97852.00;;;;5096030;28;20210;-77
2022/06/09 03:59:45;;;;;;;0.40;0.40;;;14.60;97.60;14.00;97854.00;;;;5095913;28;20222;-76
2022/06/09 04:02:12;;;;;;;0.50;0.50;;;14.50;98.10;14.00;97870.00;;;;5095958;28;20339;-76
2022/06/09 04:04:38;;;;;;;0.70;0.70;;;14.60;97.20;14.00;97862.00;;;;5095987;28;20190;-75
2022/06/09 04:07:06;;;;;;;0.50;0.50;;;14.50;97.40;14.00;97871.00;;;;5095863;28;20244;-76
2022/06/09 04:09:33;;;;;;;0.87;0.83;;;14.50;97.50;14.00;97871.00;;;;5078124;28;20210;-77
2022/06/09 04:11:59;;;;;;;0.40;0.40;;;14.50;97.20;14.00;97872.00;;;;5096232;28;20214;-77
2022/06/09 04:14:26;;;;;;;0.57;0.57;;;14.50;95.90;14.00;97874.00;;;;5099665;28;20250;-76
2022/06/09 04:16:56;;;;;;;0.50;0.50;;;14.60;96.30;14.00;97866.00;;;;5096855;28;20604;-76
2022/06/09 04:19:23;;;;;;;0.50;0.50;;;14.50;95.90;14.00;97873.00;;;;5095609;28;20226;-77
2022/06/09 04:21:50;;;;;;;0.40;0.40;;;14.60;95.60;14.10;97873.00;;;;5095684;28;20209;-77
2022/06/09 04:24:18;;;;;;;0.40;0.40;;;14.60;95.50;14.10;97840.00;;;;5095691;28;20220;-77
2022/06/09 04:26:45;;;;;;;0.40;0.40;;;14.60;95.00;14.10;97878.00;;;;5077622;28;20541;-76
2022/06/09 04:29:14;;;;;;;0.77;0.77;;;14.60;94.90;14.10;97879.00;;;;5095561;28;20194;-76
2022/06/09 04:31:42;;;;;;;0.40;0.40;;;14.70;93.90;14.10;97877.00;;;;5095477;28;20661;-76
2022/06/09 04:34:12;;;;;;;4.17;0.80;;;14.70;93.90;14.10;97890.00;;;;5095617;28;20279;-77
2022/06/09 04:36:39;;;;;;;0.50;0.50;;;14.60;94.40;14.10;97887.00;;;;5095342;28;20227;-77
2022/06/09 04:39:07;;;;;;;0.50;0.50;;;14.60;93.90;14.00;97896.00;;;;5095293;28;20222;-77
2022/06/09 04:41:35;;;;;;;0.50;0.50;;;14.60;94.70;13.90;97908.00;;;;5095394;28;20255;-76
2022/06/09 04:44:01;;;;;;;0.60;0.60;;;14.50;95.40;14.00;97910.00;;;;5095551;28;20195;-77
2022/06/09 04:46:28;;;;;;;1.70;0.80;;;14.50;95.00;14.00;97913.00;;;;5077727;28;20545;-76
2022/06/09 04:48:55;;;;;;;0.60;0.60;;;14.50;95.10;14.00;97921.00;;;;5095217;28;20195;-76
2022/06/09 04:51:24;;;;;;;0.50;0.50;;;14.50;94.70;14.10;97921.00;;;;5095225;28;20194;-77
2022/06/09 04:53:51;;;;;;;0.50;0.50;;;14.60;94.20;13.90;97919.00;;;;5095153;28;20688;-76
2022/06/09 04:56:21;;;;;;;4.03;1.67;;;14.50;94.20;13.80;97924.00;;;;5095273;28;20320;-76
2022/06/09 04:58:48;;;;;;;0.40;0.40;;;14.40;95.20;13.90;97928.00;;;;5095253;28;20289;-77
2022/06/09 05:01:18;;;;;;;0.50;0.50;;;14.50;95.30;13.90;97925.00;;;;5095145;28;20225;-76
2022/06/09 05:03:46;;;;;;;0.60;0.60;;;14.50;93.90;13.80;97922.00;;;;5095099;28;20273;-75
2022/06/09 05:06:13;;;;;;;0.57;0.57;;;14.40;94.30;13.70;97931.00;;;;5077172;28;20679;-76
2022/06/09 05:08:40;;;;;;;0.50;0.50;;;14.30;95.10;13.80;97926.00;;;;5095059;28;20198;-75
2022/06/09 05:11:07;;;;;;;0.53;0.53;;;14.30;94.80;13.80;97931.00;;;;5095135;28;20637;-76
2022/06/09 05:13:34;;;;;;;0.60;0.60;;;14.40;94.40;13.90;97934.00;;;;5094852;28;20285;-76
2022/06/09 05:16:01;;;;;;;0.50;0.50;;;14.40;94.40;13.90;97935.00;;;;5094861;28;20228;-77
2022/06/09 05:18:30;;;;;;;0.60;0.60;;;14.40;94.30;13.90;97945.00;;;;5094715;28;20697;-78
2022/06/09 05:20:58;;;;;;;0.40;0.40;;;14.40;93.90;13.90;97947.00;;;;5094838;28;20266;-78
2022/06/09 05:23:26;;;;;;;0.60;0.60;;;14.40;94.10;13.90;97944.00;;;;5094987;28;20214;-75
2022/06/09 05:25:55;;;;;;;0.43;0.43;;;14.50;94.50;14.20;97936.00;;;;5094612;28;20299;-76
2022/06/09 05:28:25;;;;;;;0.70;0.70;;;14.60;93.90;14.20;97946.00;;;;5094649;28;20248;-75
2022/06/09 05:30:55;;;;;;;0.80;0.80;;;14.70;92.90;14.10;97948.00;;;;5094694;28;20194;-76
2022/06/09 05:33:22;;;;;;;0.60;0.60;;;14.70;93.30;14.20;97953.00;;;;5094481;28;20222;-76
2022/06/09 05:35:49;;;;;;;0.50;0.50;;;14.70;93.80;14.20;97953.00;;;;5094499;28;20279;-76
2022/06/09 05:46:35;;;;;;;0.70;0.70;;;14.90;91.90;14.40;97973.00;;;;5094409;28;20231;-76
2022/06/09 05:49:02;;;;;;;0.80;0.80;;;14.90;92.30;14.50;97973.00;;;;5094510;28;20206;-77
2022/06/09 05:51:32;;;;;;;0.57;0.57;;;14.90;91.00;14.50;97969.00;;;;5100364;28;20195;-77
2022/06/09 05:53:58;;;;;;;0.40;0.40;;;15.10;90.20;14.50;97972.00;;;;5095806;28;20194;-77
2022/06/09 05:56:29;;;;;;;0.60;0.60;;;15.00;91.50;14.60;97972.00;;;;5094150;28;20269;-76
2022/06/09 05:58:59;;;;;;;0.63;0.63;;;15.00;90.30;14.70;97982.00;;;;5094161;28;20226;-77
2022/06/09 06:01:25;;;;;;;0.53;0.53;;;15.20;89.10;14.70;97986.00;;;;5076362;28;20293;-76
2022/06/09 06:03:55;;;;;;;0.53;0.53;;;15.20;87.80;14.70;97988.00;;;;5093554;28;20207;-76
2022/06/09 06:06:33;;;;;;;0.50;0.50;;;15.20;89.40;14.80;98002.00;;;;5094025;28;20215;-79
2022/06/09 06:09:01;;;;;;;4.53;0.73;;;15.30;88.20;14.80;97967.00;;;;5094129;28;20249;-77
2022/06/09 06:11:28;;;;;;;0.53;0.53;;;15.30;87.50;14.90;97995.00;;;;5094142;28;20195;-76
2022/06/09 06:13:55;;;;;;;0.90;0.90;;;15.40;87.60;15.00;97984.00;;;;5094235;28;20260;-77
2022/06/09 06:16:21;;;;;;;0.40;0.40;;;15.40;87.30;15.00;98004.00;;;;5093992;28;20718;-78
2022/06/09 06:18:50;;;;;;;0.40;0.40;;;15.50;84.60;14.90;98006.00;;;;5094000;28;20299;-76
2022/06/09 06:21:17;;;;;;;1.47;1.37;;;15.40;84.60;14.90;98008.00;;;;5093987;28;20194;-77
2022/06/09 06:23:45;;;;;;;0.50;0.50;;;15.40;82.90;15.00;98001.00;;;;5093864;28;20187;-78
2022/06/09 06:26:17;;;;;;;0.50;0.50;;;15.60;83.50;15.20;98005.00;;;;5076050;28;20251;-77
2022/06/09 06:28:46;;;;;;;11.97;1.03;;;15.70;83.80;15.10;98023.00;;;;5093900;28;20214;-76
2022/06/09 06:31:13;;;;;;;0.57;0.57;;;15.60;83.70;15.20;98013.00;;;;5093746;28;20264;-74
2022/06/09 06:33:39;;;;;;;0.40;0.40;;;15.70;82.60;15.30;98018.00;;;;5076052;28;20255;-75
2022/06/09 06:36:08;;;;;;;0.40;0.40;;;15.80;83.00;15.10;98024.00;;;;5093733;28;20236;-73
2022/06/09 06:38:38;;;;;;;0.43;0.43;;;15.70;82.30;15.00;98023.00;;;;5093742;28;20226;-71
2022/06/09 06:41:06;;;;;;;1.20;1.10;;;15.60;82.00;15.30;98021.00;;;;5093836;28;20194;-73
2022/06/09 06:43:37;;;;;;;1.00;0.93;;;15.70;83.60;15.30;98024.00;;;;5093685;28;20222;-74
2022/06/09 06:46:04;;;;;;;0.70;0.70;;;15.80;81.40;15.30;98023.00;;;;5093699;28;20268;-75
2022/06/09 06:48:33;;;;;;;0.73;0.73;;;15.80;80.80;15.40;98036.00;;;;5093634;28;20257;-75
2022/06/09 06:51:00;;;;;;;1.07;1.07;;;15.90;80.30;15.40;98033.00;;;;5093402;28;20256;-73
2022/06/09 06:53:27;;;;;;;0.57;0.57;;;15.80;78.50;15.40;98040.00;;;;5093599;28;20277;-73
2022/06/09 06:55:53;;;;;;;0.40;0.40;;;15.80;78.90;15.40;98048.00;;;;5075690;28;20311;-73
2022/06/09 06:58:20;;;;;;;0.53;0.53;;;15.90;77.90;15.20;98045.00;;;;5093610;28;20241;-73
2022/06/09 07:00:46;;;;;;;0.57;0.57;;;15.80;78.90;15.40;98054.00;;;;5093484;28;20225;-73
2022/06/09 07:03:16;;;;;;;0.80;0.80;;;15.90;79.30;15.40;98056.00;;;;5093320;28;20190;-72
2022/06/09 07:05:43;;;;;;;0.53;0.53;;;16.00;78.30;15.40;98066.00;;;;5093450;28;20240;-72
2022/06/09 07:08:15;;;;;;;2.10;1.10;;;16.00;77.20;15.60;98055.00;;;;5093439;28;20273;-75
2022/06/09 07:10:42;;;;;;;0.50;0.50;;;16.10;78.10;15.60;98058.00;;;;5093401;28;20301;-73
2022/06/09 07:13:10;;;;;;;0.70;0.70;;;16.10;77.20;15.40;98074.00;;;;5093319;28;20206;-74
2022/06/09 07:15:36;;;;;;;0.53;0.53;;;16.10;76.10;15.60;98070.00;;;;5093187;28;20226;-73
2022/06/09 07:18:06;;;;;;;0.40;0.40;;;16.10;77.10;15.70;98067.00;;;;5096771;28;20202;-74
2022/06/09 07:20:36;;;;;;;0.50;0.50;;;16.10;76.70;15.80;98071.00;;;;5096773;28;20202;-73
2022/06/09 07:23:03;;;;;;;0.47;0.47;;;16.30;75.50;15.90;98071.00;;;;5096650;28;20222;-73
2022/06/09 07:25:30;;;;;;;1.90;1.13;;;16.40;77.00;16.10;98074.00;;;;5096750;28;20230;-74
2022/06/09 07:27:56;;;;;;;0.40;0.40;;;16.50;76.30;16.10;98079.00;;;;5078859;28;20710;-74
2022/06/09 07:30:26;;;;;;;0.40;0.40;;;16.50;76.60;16.30;98084.00;;;;5096559;28;20230;-74
2022/06/09 07:32:55;;;;;;;0.60;0.60;;;16.60;78.20;16.30;98048.00;;;;5095870;28;20226;-74
2022/06/09 07:35:26;;;;;;;0.40;0.40;;;16.70;74.70;16.20;98078.00;;;;5096638;28;20232;-74
2022/06/09 07:37:55;;;;;;;0.57;0.57;;;16.80;74.90;16.50;98083.00;;;;5078735;28;20203;-74
2022/06/09 07:40:21;;;;;;;0.50;0.50;;;16.90;75.50;16.50;98077.00;;;;5096753;28;20194;-75
2022/06/09 07:42:49;;;;;;;0.40;0.40;;;16.90;74.70;16.50;98076.00;;;;5078625;28;20320;-73
2022/06/09 07:45:16;;;;;;;0.40;0.40;;;17.00;73.10;16.10;98090.00;;;;5096667;28;20215;-74
2022/06/09 07:47:46;;;;;;;0.50;0.50;;;16.80;72.70;16.40;98066.00;;;;5097577;28;20202;-74
2022/06/09 07:50:15;;;;;;;0.40;0.40;;;16.80;73.00;16.40;98091.00;;;;5101090;28;20226;-76
2022/06/09 07:52:43;;;;;;;0.57;0.57;;;16.90;70.70;16.50;98099.00;;;;5098041;28;20214;-75
2022/06/09 07:55:14;;;;;;;0.50;0.50;;;17.00;69.80;16.50;98101.00;;;;5099493;28;20232;-74
2022/06/09 07:57:41;;;;;;;0.57;0.57;;;17.00;69.20;16.50;98099.00;;;;5096829;28;20648;-74
2022/06/09 08:00:13;;;;;;;0.50;0.50;;;17.00;68.40;16.40;98103.00;;;;5096196;28;20194;-74
2022/06/09 08:02:41;;;;;;;14.13;0.93;;;17.00;69.70;16.70;98107.00;;;;5096063;28;20195;-74
2022/06/09 08:05:11;;;;;;;0.40;0.40;;;17.10;71.40;16.40;98090.00;;;;5096013;28;20206;-75
2022/06/09 08:07:38;;;;;;;0.40;0.40;;;17.00;66.30;16.40;98110.00;;;;5095736;28;20610;-75
2022/06/09 08:10:08;;;;;;;1.20;0.93;;;16.90;66.70;16.50;98102.00;;;;5096309;28;20207;-76
2022/06/09 08:12:36;;;;;;;0.47;0.47;;;17.00;64.40;16.60;98112.00;;;;5095849;28;20199;-75
2022/06/09 08:15:04;;;;;;;0.50;0.50;;;17.10;64.10;16.80;98085.00;;;;5095811;28;20218;-75
2022/06/09 08:17:31;;;;;;;0.93;0.93;;;;;16.90;98111.00;;;;5095962;28;20190;-74
2022/06/09 08:19:58;;;;;;;0.60;0.60;;;;;17.10;98111.00;;;;5096031;28;20195;-75
2022/06/09 08:22:25;;;;;;;0.50;0.50;;;;;17.00;98120.00;;;;5095970;28;20195;-78
2022/06/09 08:24:55;;;;;;;0.93;0.77;;;;;16.80;98121.00;;;;5095839;28;20214;-76
2022/06/09 08:27:22;;;;;;;0.60;0.60;;;;;16.90;98133.00;;;;5095234;28;20229;-76
2022/06/09 08:29:50;;;;;;;0.43;0.43;;;;;17.10;98118.00;;;;5095701;28;20504;-77
2022/06/09 08:32:18;;;;;;;0.50;0.50;;;;;17.30;98127.00;;;;5095724;28;20207;-75
2022/06/09 08:34:47;;;;;;;0.47;0.47;;;;;17.40;98134.00;;;;5095589;28;20234;-73
2022/06/09 08:37:14;;;;;;;0.63;0.63;;;;;17.10;98133.00;;;;5095741;28;20195;-79
2022/06/09 08:39:41;;;;;;;0.93;0.93;;;;;16.90;98139.00;;;;5095886;28;20270;-77
2022/06/09 08:42:32;;;;;;;0.60;0.60;;;;;16.80;98140.00;;;;5095621;28;20207;-76
2022/06/09 08:45:04;;;;;;;0.80;0.80;;;;;16.90;98131.00;;;;5095667;28;20195;-76
2022/06/09 08:47:36;;;;;;;0.50;0.50;;;;;17.00;98141.00;;;;5095432;28;20219;-76
2022/06/09 08:50:12;;;;;;;0.40;0.40;;;;;17.30;98147.00;;;;5095493;28;20202;-77
2022/06/09 08:52:51;;;;;;;0.60;0.60;;;;;17.30;98144.00;;;;5095441;28;20253;-76
2022/06/09 08:55:37;;;;;;;0.40;0.40;;;;;17.40;98139.00;;;;5095385;28;20222;-77
2022/06/09 08:58:11;;;;;;;0.97;0.97;;;;;17.50;98154.00;;;;5077432;28;20266;-73
2022/06/09 09:00:44;;;;;;;0.40;0.40;;;;;17.40;98140.00;;;;5095190;28;20274;-73
2022/06/09 09:03:18;;;;;;;0.50;0.50;;;;;17.60;98144.00;;;;5095337;28;20209;-75
2022/06/09 09:05:51;;;;;;;0.60;0.60;;;;;17.60;98141.00;;;;5095131;28;20198;-77
2022/06/09 09:08:17;;;;;;;1.03;0.97;;;;;17.50;98147.00;;;;5095106;28;20214;-76
2022/06/09 09:10:53;;;;;;;0.40;0.40;;;;;17.40;98137.00;;;;5095321;28;20182;-72
2022/06/09 09:13:40;;;;;;;0.30;0.30;;;;;17.50;98157.00;;;;5094959;28;20229;-78
2022/06/09 09:16:19;;;;;;;0.83;0.83;;;;;17.50;98150.00;;;;5095000;28;20240;-76
2022/06/09 09:18:53;;;;;;;1.17;0.70;;;;;17.60;98150.00;;;;5094886;28;20198;-74
2022/06/09 09:21:38;;;;;;;0.40;0.40;;;;;17.60;98149.00;;;;5079873;28;20270;-76
2022/06/09 09:24:19;;;;;;;0.40;0.40;;;;;17.70;98159.00;;;;5096233;28;20195;-75
2022/06/09 09:26:50;;;;;;;0.40;0.40;;;;;17.90;98156.00;;;;5094738;28;20226;-74
2022/06/09 09:29:24;;;;;;;0.57;0.43;;;;;18.20;98156.00;;;;5094697;28;20382;-75
2022/06/09 09:31:55;;;;;;;0.50;0.50;;;;;18.30;98158.00;;;;5094578;28;20233;-75
2022/06/09 09:34:25;;;;;;;0.40;0.40;;;;;18.30;98160.00;;;;5094795;28;20252;-75
2022/06/09 09:36:57;;;;;;;0.50;0.50;;;;;18.30;98153.00;;;;5094661;28;20222;-74
2022/06/09 09:39:33;;;;;;;0.43;0.43;;;;;18.40;98161.00;;;;5075984;28;20223;-74
2022/06/09 09:42:12;;;;;;;0.40;0.40;;;;;18.50;98163.00;;;;5094790;28;20209;-72
2022/06/09 09:44:39;;;;;;;1.20;1.10;;;;;18.60;98154.00;;;;5094559;28;20622;-75
2022/06/09 09:47:07;;;;;;;0.63;0.63;;;;;18.30;98161.00;;;;5094724;28;20657;-73
2022/06/09 09:49:40;;;;;;;0.40;0.40;;;;;18.50;98167.00;;;;5094463;28;20198;-76
2022/06/09 09:52:36;;;;;;;2.93;1.13;;;;;18.60;98158.00;;;;5076828;28;20237;-75
2022/06/09 09:55:03;;;;;;;0.37;0.37;;;;;18.90;98180.00;;;;5076508;28;20194;-75
2022/06/09 09:57:33;;;;;;;0.40;0.40;;;;;18.80;98173.00;;;;5094254;28;20234;-74
2022/06/09 10:00:00;;;;;;;0.40;0.40;;;;;18.60;98166.00;;;;5094303;28;20645;-74
2022/06/09 10:08:38;;;;;;;0.53;0.53;;;;;18.90;98185.00;;;;5094229;28;20194;-77
2022/06/09 10:13:58;;;;;;;0.60;0.60;;;;;19.10;98177.00;;;;5094267;28;20203;-76
2022/06/09 10:16:29;;;;;;;0.70;0.70;;;;;19.30;98180.00;;;;5093826;28;20275;-74
2022/06/09 10:19:03;;;;;;;0.60;0.60;;;;;19.20;98176.00;;;;5094037;28;20622;-76
2022/06/09 10:21:49;;;;;;;0.50;0.50;;;;;19.50;98184.00;;;;5094035;28;20221;-75
2022/06/09 10:24:18;;;;;;;0.43;0.43;;;;;19.70;98185.00;;;;5093968;28;20275;-74
2022/06/09 10:26:47;;;;;;;0.40;0.40;;;;;19.20;98190.00;;;;5093834;28;20214;-75
2022/06/09 10:29:21;;;;;;;0.43;0.43;;;;;19.00;98179.00;;;;5093875;28;20190;-76
2022/06/09 10:31:58;;;;;;;0.30;0.30;;;;;19.20;98191.00;;;;5093939;28;20587;-74
2022/06/09 10:34:40;;;;;;;0.77;0.77;;;;;19.00;98188.00;;;;5076062;28;20205;-73
2022/06/09 10:37:17;;;;;;;0.40;0.40;;;;;19.10;98191.00;;;;5093792;28;20222;-74
2022/06/09 10:39:48;;;;;;;0.77;0.70;;;;;19.00;98194.00;;;;5093921;28;20252;-77
2022/06/09 10:42:26;;;;;;;0.40;0.40;;;;;18.90;98204.00;;;;5093737;28;20631;-76
2022/06/09 10:45:17;;;;;;;0.50;0.50;;;;;18.90;98192.00;;;;5093797;28;20229;-75
2022/06/09 10:56:46;;;;;;;0.47;0.47;;;;;18.80;98206.00;;;;5097081;28;20226;-74
2022/06/09 10:59:18;;;;;;;0.40;0.40;;;;;18.70;98199.00;;;;5097102;28;20269;-74
2022/06/09 11:01:48;;;;;;;0.47;0.47;;;;;19.00;98203.00;;;;5096963;28;20582;-72
2022/06/09 11:04:17;;;;;;;0.47;0.47;;;;;18.80;98212.00;;;;5097143;28;20186;-74
2022/06/09 11:07:10;;;;;;;0.47;0.47;;;;;18.80;98211.00;;;;5096986;28;20654;-73
2022/06/09 11:09:48;;;;;;;0.50;0.50;;;;;18.70;98227.00;;;;5097215;28;20218;-74
2022/06/09 11:12:25;;;;;;;0.83;0.83;;;;;18.90;98207.00;;;;5100953;28;20599;-74
2022/06/09 11:15:03;;;;;;;0.50;0.50;;;;;19.60;98209.00;;;;5097596;28;20210;-76
2022/06/09 11:17:50;;;;;;;0.80;0.80;;;;;19.80;98203.00;;;;5096910;28;20298;-76
2022/06/09 11:20:28;;;;;;;0.40;0.40;;;;;20.20;98209.00;;;;5096833;28;20198;-74
2022/06/09 11:23:06;;;;;;;0.80;0.80;;;;;20.30;98208.00;;;;5096656;28;20222;-76
2022/06/09 11:25:45;;;;;;;0.40;0.40;;;;;20.00;98224.00;;;;5096734;28;20203;-75
2022/06/09 11:28:32;;;;;;;0.37;0.37;;;;;20.70;98223.00;;;;5096719;28;20211;-74
2022/06/09 11:31:22;;;;;;;0.60;0.60;;;;;21.00;98223.00;;;;5096711;28;20207;-77
2022/06/09 11:34:28;;;;;;;0.40;0.40;;;;;21.10;98208.00;;;;5096766;28;20220;-76
2022/06/09 11:37:02;;;;;;;0.40;0.40;;;;;21.00;98214.00;;;;5096696;28;20222;-76
2022/06/09 11:39:42;;;;;;;0.40;0.40;;;;;20.60;98203.00;;;;5097164;28;20222;-75
2022/06/09 11:42:20;;;;;;;0.97;0.97;;;;;21.10;98219.00;;;;5096425;28;20218;-75
2022/06/09 11:44:51;;;;;;;0.83;0.83;;;;;21.50;98212.00;;;;5096478;28;20207;-72
2022/06/09 11:47:21;;;;;;;0.63;0.63;;;;;21.50;98207.00;;;;5096409;28;20268;-75
2022/06/09 11:49:51;;;;;;;0.50;0.50;;;;;21.50;98202.00;;;;5096393;28;20321;-76
2022/06/09 11:52:21;;;;;;;0.40;0.40;;;;;22.30;98205.00;;;;5096402;28;20313;-76
2022/06/09 11:55:04;;;;;;;0.53;0.53;;;;;22.20;98210.00;;;;5096133;28;20301;-75
2022/06/09 11:57:46;;;;;;;0.73;0.73;;;;;22.20;98210.00;;;;5096163;28;20359;-76
2022/06/09 12:00:43;;;;;;;0.50;0.50;;;;;22.50;98203.00;;;;5096176;28;20290;-72